createdAt,value
2019-02-19T00:02:28.202Z,27.07
2019-02-19T00:07:32.168Z,25.00
2019-02-19T00:12:36.137Z,25.97
2019-02-19T00:17:39.932Z,26.03
2019-02-19T00:22:43.641Z,25.47
2019-02-19T00:27:47.332Z,26.70
2019-02-19T00:32:51.054Z,26.87
2019-02-19T00:37:55.010Z,26.83
2019-02-19T00:42:58.742Z,27.63
2019-02-19T00:48:02.422Z,27.73
2019-02-19T00:53:06.244Z,29.23
2019-02-19T00:58:10.175Z,27.77
2019-02-19T01:03:13.862Z,28.10
2019-02-19T01:08:17.613Z,29.13
2019-02-19T01:13:21.346Z,27.03
2019-02-19T01:18:25.065Z,28.17
2019-02-19T01:23:29.062Z,27.90
2019-02-19T01:28:33.004Z,29.03
2019-02-19T01:33:36.717Z,29.60
2019-02-19T01:38:40.422Z,30.03
2019-02-19T01:43:44.123Z,29.03
2019-02-19T01:48:48.143Z,29.83
2019-02-19T01:53:52.136Z,30.33
2019-02-19T01:58:56.117Z,30.20
2019-02-19T02:03:59.895Z,31.20
2019-02-19T02:09:04.733Z,31.67
2019-02-19T02:14:08.727Z,30.90
2019-02-19T02:19:12.435Z,31.30
2019-02-19T02:24:16.119Z,31.23
2019-02-19T02:29:19.870Z,31.23
2019-02-19T02:34:23.573Z,33.03
2019-02-19T02:39:27.282Z,32.03
2019-02-19T02:44:31.041Z,33.53
2019-02-19T02:49:34.764Z,34.20
2019-02-19T02:54:38.776Z,34.43
2019-02-19T02:59:42.556Z,35.17
2019-02-19T03:04:46.278Z,34.83
2019-02-19T03:09:49.985Z,35.30
2019-02-19T03:14:53.677Z,37.30
2019-02-19T03:19:57.662Z,36.57
2019-02-19T03:25:01.728Z,36.07
2019-02-19T03:30:06.959Z,36.73
2019-02-19T03:35:10.680Z,35.67
2019-02-19T03:40:14.447Z,37.10
2019-02-19T03:45:18.117Z,36.50
2019-02-19T03:50:21.833Z,38.00
2019-02-19T03:55:25.622Z,37.30
2019-02-19T04:00:29.311Z,38.90
2019-02-19T04:05:33.004Z,39.13
2019-02-19T04:10:36.917Z,41.40
2019-02-19T04:15:40.623Z,41.50
2019-02-19T04:20:44.887Z,40.40
2019-02-19T04:25:48.568Z,40.57
2019-02-19T04:30:52.235Z,41.67
2019-02-19T04:35:56.152Z,42.83
2019-02-19T04:40:59.812Z,43.47
2019-02-19T04:46:03.490Z,42.20
2019-02-19T04:51:07.438Z,43.33
2019-02-19T04:56:11.104Z,43.30
2019-02-19T05:01:14.814Z,41.73
2019-02-19T05:06:18.526Z,43.20
2019-02-19T05:11:22.193Z,42.47
2019-02-19T05:16:25.908Z,42.97
2019-02-19T05:21:29.619Z,44.50
2019-02-19T05:26:33.328Z,43.93
2019-02-19T05:31:37.326Z,42.67
2019-02-19T05:36:41.307Z,46.00
2019-02-19T05:41:45.013Z,43.10
2019-02-19T05:46:50.136Z,44.43
2019-02-19T05:51:54.355Z,45.20
2019-02-19T05:56:58.056Z,45.57
2019-02-19T06:02:01.714Z,54.83
2019-02-19T06:07:05.639Z,59.63
2019-02-19T06:12:09.683Z,47.00
2019-02-19T06:17:13.381Z,47.47
2019-02-19T06:22:17.131Z,44.33
2019-02-19T06:27:20.847Z,45.13
2019-02-19T06:32:24.602Z,45.60
2019-02-19T06:37:28.439Z,45.17
2019-02-19T06:42:32.123Z,44.07
2019-02-19T06:47:35.866Z,43.47
2019-02-19T06:52:39.619Z,43.63
2019-02-19T06:57:43.295Z,42.13
2019-02-19T07:02:52.657Z,43.77
2019-02-19T07:07:56.346Z,41.93
2019-02-19T07:13:00.295Z,42.20
2019-02-19T07:18:03.985Z,41.93
2019-02-19T07:23:08.187Z,41.50
2019-02-19T07:28:11.855Z,41.60
2019-02-19T07:33:15.575Z,40.13
2019-02-19T07:38:19.562Z,36.77
2019-02-19T07:43:23.521Z,38.20
2019-02-19T07:48:27.478Z,37.27
2019-02-19T07:53:31.436Z,36.33
2019-02-19T07:58:35.234Z,35.30
2019-02-19T08:03:39.035Z,36.87
2019-02-19T08:08:43.306Z,36.13
2019-02-19T08:13:47.325Z,37.60
2019-02-19T08:18:51.356Z,36.20
2019-02-19T08:23:55.079Z,36.00
2019-02-19T08:29:11.343Z,36.23
2019-02-19T08:34:04.245Z,34.63
2019-02-19T08:39:08.341Z,33.10
2019-02-19T08:44:12.067Z,32.87
2019-02-19T08:49:15.773Z,33.27
2019-02-19T08:54:19.489Z,32.70
2019-02-19T08:59:23.733Z,31.13
2019-02-19T09:04:27.408Z,30.73
2019-02-19T09:09:31.427Z,25.23
2019-02-19T09:14:35.201Z,27.40
2019-02-19T09:19:38.913Z,26.45
2019-02-19T09:24:42.623Z,25.57
2019-02-19T09:30:06.011Z,25.77
2019-02-19T09:35:10.155Z,24.75
2019-02-19T09:40:16.631Z,22.58
2019-02-19T09:45:20.889Z,23.95
2019-02-19T09:50:24.744Z,7.92
2019-02-19T09:55:28.470Z,6.60
2019-02-19T10:00:32.364Z,5.87
2019-02-19T10:05:36.115Z,5.97
2019-02-19T10:10:39.840Z,5.70
2019-02-19T10:15:43.809Z,6.05
2019-02-19T10:20:47.801Z,5.50
2019-02-19T10:25:51.528Z,4.87
2019-02-19T10:30:55.245Z,4.72
2019-02-19T10:35:59.232Z,4.92
2019-02-19T10:41:02.952Z,5.30
2019-02-19T10:46:07.101Z,5.33
2019-02-19T10:51:11.077Z,5.20
2019-02-19T10:56:15.058Z,5.47
2019-02-19T11:01:18.824Z,5.47
2019-02-19T11:06:22.497Z,5.30
2019-02-19T11:11:26.185Z,5.70
2019-02-19T11:16:30.151Z,5.00
2019-02-19T11:21:36.303Z,4.70
2019-02-19T11:26:40.020Z,5.03
2019-02-19T11:31:44.125Z,4.67
2019-02-19T11:36:47.878Z,5.27
2019-02-19T11:41:51.979Z,4.50
2019-02-19T11:46:55.726Z,5.40
2019-02-19T11:51:59.784Z,5.63
2019-02-19T11:57:03.665Z,5.70
2019-02-19T12:02:11.960Z,6.87
2019-02-19T12:07:15.697Z,6.63
2019-02-19T12:12:20.371Z,6.70
2019-02-19T12:17:24.059Z,6.57
2019-02-19T12:22:27.735Z,6.97
2019-02-19T12:27:31.441Z,7.70
2019-02-19T12:32:35.633Z,8.23
2019-02-19T12:37:39.378Z,8.63
2019-02-19T12:42:43.341Z,9.47
2019-02-19T12:47:47.033Z,9.67
2019-02-19T12:52:50.726Z,9.47
2019-02-19T12:57:54.727Z,8.80
2019-02-19T13:02:58.598Z,9.43
2019-02-19T13:08:02.820Z,10.17
2019-02-19T13:13:06.961Z,9.07
2019-02-19T13:18:10.661Z,10.40
2019-02-19T13:23:14.694Z,10.93
2019-02-19T13:28:18.381Z,11.37
2019-02-19T13:33:22.101Z,11.17
2019-02-19T13:38:26.221Z,12.10
2019-02-19T13:43:36.031Z,12.30
2019-02-19T13:48:39.740Z,11.83
2019-02-19T13:53:47.391Z,12.33
2019-02-19T13:58:51.209Z,12.60
2019-02-19T14:03:55.069Z,11.83
2019-02-19T14:08:59.115Z,11.57
2019-02-19T14:14:22.866Z,10.93
2019-02-19T14:19:42.944Z,10.57
2019-02-19T14:25:08.070Z,9.80
2019-02-19T14:30:43.653Z,10.10
2019-02-19T14:36:05.955Z,9.40
2019-02-19T14:41:27.902Z,8.10
2019-02-19T14:46:49.980Z,7.73
2019-02-19T14:52:07.720Z,7.77
2019-02-19T14:57:33.609Z,7.10
2019-02-19T15:02:48.473Z,8.53
2019-02-19T15:08:14.699Z,9.00
2019-02-19T15:13:34.113Z,7.43
2019-02-19T15:18:52.194Z,7.27
2019-02-19T15:24:21.621Z,7.57
2019-02-19T15:29:36.894Z,6.87
2019-02-19T15:34:50.140Z,7.03
2019-02-19T15:40:08.594Z,5.77
2019-02-19T15:45:21.427Z,5.23
2019-02-19T15:50:43.000Z,4.10
2019-02-19T15:56:17.430Z,4.30
2019-02-19T16:01:32.860Z,3.80
2019-02-19T16:06:44.844Z,3.80
2019-02-19T16:11:56.886Z,3.40
2019-02-19T16:17:18.775Z,3.90
2019-02-19T16:22:40.584Z,3.73
2019-02-19T16:27:59.634Z,3.53
2019-02-19T16:33:16.360Z,3.23
2019-02-19T16:38:44.984Z,3.70
2019-02-19T16:43:56.992Z,3.97
2019-02-19T16:49:09.991Z,4.63
2019-02-19T16:54:19.893Z,3.87
2019-02-19T16:59:41.339Z,4.00
2019-02-19T17:05:19.628Z,4.40
2019-02-19T17:10:41.201Z,5.00
2019-02-19T17:16:01.633Z,5.27
2019-02-19T17:21:23.435Z,5.30
2019-02-19T17:26:41.045Z,5.90
2019-02-19T17:32:22.520Z,6.20
2019-02-19T17:37:44.758Z,7.03
2019-02-19T17:43:22.640Z,7.07
2019-02-19T17:48:45.103Z,6.17
2019-02-19T17:54:10.111Z,7.17
2019-02-19T17:59:25.210Z,7.00
2019-02-19T18:04:43.970Z,6.90
2019-02-19T18:10:25.209Z,7.70
2019-02-19T18:15:50.781Z,7.20
2019-02-19T18:20:54.788Z,7.20
2019-02-19T18:25:58.525Z,8.10
2019-02-19T18:31:03.058Z,8.20
2019-02-19T18:36:07.102Z,8.53
2019-02-19T18:41:10.828Z,7.97
2019-02-19T18:46:14.547Z,9.13
2019-02-19T18:51:18.494Z,9.90
2019-02-19T18:56:22.187Z,10.57
2019-02-19T19:01:25.872Z,15.17
2019-02-19T19:06:29.601Z,12.07
2019-02-19T19:11:33.326Z,11.10
2019-02-19T19:16:37.266Z,11.73
2019-02-19T19:21:41.308Z,11.10
2019-02-19T19:26:45.320Z,10.50
2019-02-19T19:31:49.000Z,10.07
2019-02-19T19:36:52.682Z,9.33
2019-02-19T19:41:56.664Z,10.03
2019-02-19T19:47:00.330Z,8.70
2019-02-19T19:52:04.086Z,9.50
2019-02-19T19:57:07.818Z,10.07
2019-02-19T20:02:11.486Z,9.47
2019-02-19T20:07:15.207Z,8.53
2019-02-19T20:12:18.930Z,7.80
2019-02-19T20:17:22.640Z,7.40
2019-02-19T20:22:26.330Z,6.50
2019-02-19T20:27:30.030Z,7.00
2019-02-19T20:32:33.779Z,6.80
2019-02-19T20:37:37.558Z,7.37
2019-02-19T20:42:41.601Z,7.10
2019-02-19T20:47:45.275Z,6.97
2019-02-19T20:52:49.446Z,7.37
2019-02-19T20:57:53.238Z,7.73
2019-02-19T21:02:57.004Z,7.73
2019-02-19T21:08:00.974Z,7.37
2019-02-19T21:13:05.999Z,7.10
2019-02-19T21:18:09.823Z,8.03
2019-02-19T21:23:13.876Z,8.23
2019-02-19T21:28:17.865Z,8.23
2019-02-19T21:33:21.559Z,7.77
2019-02-19T21:38:25.281Z,7.90
2019-02-19T21:43:29.224Z,8.13
2019-02-19T21:48:32.946Z,7.67
2019-02-19T21:53:36.759Z,8.40
2019-02-19T21:58:40.640Z,8.63
2019-02-19T22:03:44.543Z,8.93
2019-02-19T22:08:48.277Z,8.33
2019-02-19T22:13:52.012Z,9.20
2019-02-19T22:18:55.749Z,9.37
2019-02-19T22:23:59.508Z,8.60
2019-02-19T22:29:03.264Z,8.87
2019-02-19T22:34:07.291Z,9.27
2019-02-19T22:39:11.125Z,9.00
2019-02-19T22:44:14.874Z,9.73
2019-02-19T22:49:18.553Z,9.23
2019-02-19T22:54:47.316Z,9.40
2019-02-19T22:59:51.098Z,9.47
2019-02-19T23:04:54.868Z,10.00
2019-02-19T23:09:58.581Z,9.67
2019-02-19T23:15:02.328Z,10.07
2019-02-19T23:20:06.226Z,10.23
2019-02-19T23:25:10.279Z,9.97
2019-02-19T23:30:14.164Z,9.70
2019-02-19T23:35:24.757Z,10.17
2019-02-19T23:40:28.546Z,9.67
2019-02-19T23:45:32.594Z,10.13
2019-02-19T23:50:36.550Z,10.33
2019-02-19T23:55:40.589Z,10.30
